Sedna Desgagnes — CYQE — position and weather

sailwx.info

Track history (hours):
 
Tides and Currents Weather Stations Pressure Air Temp Water Temp Dewpoint Dewpoint Depression Visibility Wind Speed Wind Dir Waves Ship Positions

Sedna Desgagnes

Last reported at 2016-Jul-06 03:33 UTC. Time now 2016-Jul-27 19:15 UTC.
Position N 51°00' W 057°33'.
Warning: this ship's position is 21 days out of date.

Length 139 m; draft 8 m.

Type: Ship. MMSI: 316015251.

Date/timePositionNaut miles runAvg speedWind from/ knotsBaromVisibWave heightAir tempDewpointWater temp
2016-Jul-06 03:33N 51°00' W 057°33'  
2016-Jul-03 07:33N 46°16' W 072°43'1313.3
2016-Jul-03 06:34N 46°07' W 072°58'1313.2
2016-Jul-03 05:33N 45°58' W 073°12'1413.7
2016-Jul-03 04:34N 45°47' W 073°22'1312.5
2016-Jul-03 03:34N 45°36' W 073°30'6 5.5
2016-Jul-03 02:32N 45°30' W 073°31'2 1.1
2016-Jul-03 00:33N 45°28' W 073°30'4 4.3
2016-Jul-02 23:33N 45°24' W 073°34'4 4.2
2016-Jul-02 22:33N 45°25' W 073°40'1110.6
2016-Jul-02 21:33N 45°20' W 073°54'8 8.1
2016-Jul-02 20:33N 45°24' W 073°44'6 5.1
2016-Jul-02 19:25N 45°24' W 073°35'0 0.0
2016-Jul-02 18:31N 45°24' W 073°35'0 0.0
2016-Jul-02 17:31N 45°24' W 073°35'0 0.0
2016-Jul-02 16:31N 45°24' W 073°35'0 0.0
2016-Jul-02 15:31N 45°24' W 073°35'0 0.0
2016-Jul-02 14:25N 45°24' W 073°35'0 0.0
2016-Jul-02 13:31N 45°24' W 073°35'0 0.0
2016-Jul-02 12:25N 45°24' W 073°35'0 0.0
2016-Jul-02 11:31N 45°24' W 073°35'0 0.0
2016-Jul-02 10:25N 45°24' W 073°35'0 0.0
2016-Jul-02 09:25N 45°24' W 073°35'0 0.0
2016-Jul-02 08:31N 45°24' W 073°35'0 0.0
2016-Jul-02 07:31N 45°24' W 073°35'0 0.0
2016-Jul-02 06:31N 45°24' W 073°35'0 0.0
2016-Jul-02 04:31N 45°24' W 073°35'0 0.0
2016-Jul-02 03:31N 45°24' W 073°35'0 0.0
2016-Jul-02 02:31N 45°24' W 073°35'0 0.0
2016-Jul-02 01:31N 45°24' W 073°35'0 0.0
2016-Jul-02 00:31N 45°24' W 073°35'0 0.0
2016-Jul-01 23:31N 45°24' W 073°35'0 0.0
2016-Jul-01 22:19N 45°24' W 073°35'0 0.0
2016-Jul-01 21:31N 45°24' W 073°35'0 0.0
2016-Jul-01 20:31N 45°24' W 073°35'0 0.0
2016-Jul-01 19:31N 45°24' W 073°35'0 0.0
2016-Jul-01 18:25N 45°24' W 073°35'0 0.0
2016-Jul-01 17:31N 45°24' W 073°35'0 0.0
2016-Jul-01 16:31N 45°24' W 073°35'0 0.0
2016-Jul-01 15:25N 45°24' W 073°35'0 0.0
2016-Jul-01 14:31N 45°24' W 073°35'0 0.0
2016-Jul-01 13:31N 45°24' W 073°35'0 0.0
2016-Jul-01 12:31N 45°24' W 073°35'0 0.0
2016-Jul-01 11:31N 45°24' W 073°35'0 0.0
2016-Jul-01 10:31N 45°24' W 073°35'0 0.0
2016-Jul-01 09:31N 45°24' W 073°35'0 0.0
2016-Jul-01 08:31N 45°24' W 073°35'0 0.0
2016-Jul-01 07:31N 45°24' W 073°35'0 0.0
2016-Jul-01 06:25N 45°24' W 073°35'0 0.0
2016-Jul-01 05:31N 45°24' W 073°35'0 0.0
2016-Jul-01 04:31N 45°24' W 073°35'0 0.0
2016-Jul-01 03:31N 45°24' W 073°35'0 0.0
2016-Jul-01 02:25N 45°24' W 073°35'0 0.0
2016-Jul-01 01:25N 45°24' W 073°35'0 0.0
2016-Jul-01 00:31N 45°24' W 073°35'0 0.0
2016-Jun-30 23:28N 45°24' W 073°35'0 0.0
2016-Jun-30 22:28N 45°24' W 073°35'0 0.0
2016-Jun-30 21:28N 45°24' W 073°35'0 0.0
2016-Jun-30 20:28N 45°24' W 073°35'0 0.0
2016-Jun-30 19:28N 45°24' W 073°35'0 0.0
2016-Jun-30 18:28N 45°24' W 073°35'0 0.0
2016-Jun-30 17:28N 45°24' W 073°35'0 0.0
2016-Jun-30 16:28N 45°24' W 073°35'0 0.0
2016-Jun-30 15:28N 45°24' W 073°35'0 0.0
2016-Jun-30 14:28N 45°24' W 073°35'0 0.0
2016-Jun-30 13:28N 45°24' W 073°35'0 0.0
2016-Jun-30 12:28N 45°24' W 073°35'0 0.0
2016-Jun-30 11:28N 45°24' W 073°35'0 0.0
2016-Jun-30 10:28N 45°24' W 073°35'0 0.0
2016-Jun-30 09:28N 45°24' W 073°35'0 0.0
2016-Jun-30 08:28N 45°24' W 073°35'0 0.0
2016-Jun-30 07:28N 45°24' W 073°35'0 0.0
2016-Jun-30 06:28N 45°24' W 073°35'0 0.0
2016-Jun-30 05:28N 45°24' W 073°35'0 0.0
2016-Jun-30 04:28N 45°24' W 073°35'0 0.0
2016-Jun-30 03:28N 45°24' W 073°35'0 0.0
2016-Jun-30 02:31N 45°24' W 073°35'0 0.0
2016-Jun-30 01:31N 45°24' W 073°35'0 0.0
2016-Jun-30 00:31N 45°24' W 073°35'0 0.0
2016-Jun-29 23:31N 45°24' W 073°35'0 0.0
2016-Jun-29 22:31N 45°24' W 073°35'0 0.0
2016-Jun-29 21:31N 45°24' W 073°35'0 0.0
2016-Jun-29 20:31N 45°24' W 073°35'0 0.0
2016-Jun-29 19:31N 45°24' W 073°35'0 0.0
2016-Jun-29 18:25N 45°24' W 073°35'0 0.0
2016-Jun-29 17:30N 45°24' W 073°35'0 0.0
2016-Jun-29 16:33N 45°24' W 073°35'0 0.0
2016-Jun-29 15:29N 45°24' W 073°35'0 0.0
2016-Jun-29 14:28N 45°24' W 073°35'0 0.0
2016-Jun-29 13:28N 45°24' W 073°35'0 0.0
2016-Jun-29 12:28N 45°24' W 073°35'0 0.0
2016-Jun-29 11:28N 45°24' W 073°35'0 0.0
2016-Jun-29 10:28N 45°24' W 073°35'0 0.0
2016-Jun-29 09:28N 45°24' W 073°35'0 0.0
2016-Jun-29 08:28N 45°24' W 073°35'0 0.0
2016-Jun-29 07:28N 45°24' W 073°35'0 0.0
2016-Jun-29 06:33N 45°24' W 073°35'0 0.2
2016-Jun-29 05:33N 45°24' W 073°35'1 1.2
2016-Jun-29 04:33N 45°24' W 073°33'5 4.3
2016-Jun-29 03:30N 45°29' W 073°31'5 2.8
2016-Jun-29 01:33N 45°34' W 073°31'9 8.9
2016-Jun-29 00:34N 45°42' W 073°26'1010.3
2016-Jun-28 23:33N 45°50' W 073°17'1110.6
2016-Jun-28 22:34N 45°60' W 073°11'10 9.9
2016-Jun-28 21:34N 46°06' W 072°59'1111.0
2016-Jun-28 20:33N 46°13' W 072°48'  
2016-Jun-26 14:31N 46°14' W 072°46'1313.6
2016-Jun-26 13:33N 46°05' W 072°60'1312.7
2016-Jun-26 12:34N 45°56' W 073°13'1413.7
2016-Jun-26 11:33N 45°45' W 073°24'1211.7
2016-Jun-26 10:33N 45°34' W 073°30'2 1.7
2016-Jun-26 09:31N 45°33' W 073°32'0 0.0
2016-Jun-26 08:22N 45°33' W 073°32'0 0.0
2016-Jun-26 07:31N 45°33' W 073°32'0 0.0
2016-Jun-26 06:28N 45°33' W 073°32'0 0.0
2016-Jun-26 05:28N 45°33' W 073°32'0 0.0
2016-Jun-26 04:28N 45°33' W 073°32'  
Track history (hours):
 
Tides and Currents Weather Stations Pressure Air Temp Water Temp Dewpoint Dewpoint Depression Visibility Wind Speed Wind Dir Waves Ship Positions

Sedna Desgagnes

Last reported at 2016-Jul-06 03:33 UTC. Time now 2016-Jul-27 19:15 UTC.
Position N 51°00' W 057°33'.
Warning: this ship's position is 21 days out of date.

Length 139 m; draft 8 m.

Type: Ship. MMSI: 316015251.

Date/timePositionNaut miles runAvg speedWind from/ knotsBaromVisibWave heightAir tempDewpointWater temp
2016-Jul-06 03:33N 51°00' W 057°33'  
2016-Jul-03 07:33N 46°16' W 072°43'1313.3
2016-Jul-03 06:34N 46°07' W 072°58'1313.2
2016-Jul-03 05:33N 45°58' W 073°12'1413.7
2016-Jul-03 04:34N 45°47' W 073°22'1312.5
2016-Jul-03 03:34N 45°36' W 073°30'6 5.5
2016-Jul-03 02:32N 45°30' W 073°31'2 1.1
2016-Jul-03 00:33N 45°28' W 073°30'4 4.3
2016-Jul-02 23:33N 45°24' W 073°34'4 4.2
2016-Jul-02 22:33N 45°25' W 073°40'1110.6
2016-Jul-02 21:33N 45°20' W 073°54'8 8.1
2016-Jul-02 20:33N 45°24' W 073°44'6 5.1
2016-Jul-02 19:25N 45°24' W 073°35'0 0.0
2016-Jul-02 18:31N 45°24' W 073°35'0 0.0
2016-Jul-02 17:31N 45°24' W 073°35'0 0.0
2016-Jul-02 16:31N 45°24' W 073°35'0 0.0
2016-Jul-02 15:31N 45°24' W 073°35'0 0.0
2016-Jul-02 14:25N 45°24' W 073°35'0 0.0
2016-Jul-02 13:31N 45°24' W 073°35'0 0.0
2016-Jul-02 12:25N 45°24' W 073°35'0 0.0
2016-Jul-02 11:31N 45°24' W 073°35'0 0.0
2016-Jul-02 10:25N 45°24' W 073°35'0 0.0
2016-Jul-02 09:25N 45°24' W 073°35'0 0.0
2016-Jul-02 08:31N 45°24' W 073°35'0 0.0
2016-Jul-02 07:31N 45°24' W 073°35'0 0.0
2016-Jul-02 06:31N 45°24' W 073°35'0 0.0
2016-Jul-02 04:31N 45°24' W 073°35'0 0.0
2016-Jul-02 03:31N 45°24' W 073°35'0 0.0
2016-Jul-02 02:31N 45°24' W 073°35'0 0.0
2016-Jul-02 01:31N 45°24' W 073°35'0 0.0
2016-Jul-02 00:31N 45°24' W 073°35'0 0.0
2016-Jul-01 23:31N 45°24' W 073°35'0 0.0
2016-Jul-01 22:19N 45°24' W 073°35'0 0.0
2016-Jul-01 21:31N 45°24' W 073°35'0 0.0
2016-Jul-01 20:31N 45°24' W 073°35'0 0.0
2016-Jul-01 19:31N 45°24' W 073°35'0 0.0
2016-Jul-01 18:25N 45°24' W 073°35'0 0.0
2016-Jul-01 17:31N 45°24' W 073°35'0 0.0
2016-Jul-01 16:31N 45°24' W 073°35'0 0.0
2016-Jul-01 15:25N 45°24' W 073°35'0 0.0
2016-Jul-01 14:31N 45°24' W 073°35'0 0.0
2016-Jul-01 13:31N 45°24' W 073°35'0 0.0
2016-Jul-01 12:31N 45°24' W 073°35'0 0.0
2016-Jul-01 11:31N 45°24' W 073°35'0 0.0
2016-Jul-01 10:31N 45°24' W 073°35'0 0.0
2016-Jul-01 09:31N 45°24' W 073°35'0 0.0
2016-Jul-01 08:31N 45°24' W 073°35'0 0.0
2016-Jul-01 07:31N 45°24' W 073°35'0 0.0
2016-Jul-01 06:25N 45°24' W 073°35'0 0.0
2016-Jul-01 05:31N 45°24' W 073°35'0 0.0
2016-Jul-01 04:31N 45°24' W 073°35'0 0.0
2016-Jul-01 03:31N 45°24' W 073°35'0 0.0
2016-Jul-01 02:25N 45°24' W 073°35'0 0.0
2016-Jul-01 01:25N 45°24' W 073°35'0 0.0
2016-Jul-01 00:31N 45°24' W 073°35'0 0.0
2016-Jun-30 23:28N 45°24' W 073°35'0 0.0
2016-Jun-30 22:28N 45°24' W 073°35'0 0.0
2016-Jun-30 21:28N 45°24' W 073°35'0 0.0
2016-Jun-30 20:28N 45°24' W 073°35'0 0.0
2016-Jun-30 19:28N 45°24' W 073°35'0 0.0
2016-Jun-30 18:28N 45°24' W 073°35'0 0.0
2016-Jun-30 17:28N 45°24' W 073°35'0 0.0
2016-Jun-30 16:28N 45°24' W 073°35'0 0.0
2016-Jun-30 15:28N 45°24' W 073°35'0 0.0
2016-Jun-30 14:28N 45°24' W 073°35'0 0.0
2016-Jun-30 13:28N 45°24' W 073°35'0 0.0
2016-Jun-30 12:28N 45°24' W 073°35'0 0.0
2016-Jun-30 11:28N 45°24' W 073°35'0 0.0
2016-Jun-30 10:28N 45°24' W 073°35'0 0.0
2016-Jun-30 09:28N 45°24' W 073°35'0 0.0
2016-Jun-30 08:28N 45°24' W 073°35'0 0.0
2016-Jun-30 07:28N 45°24' W 073°35'0 0.0
2016-Jun-30 06:28N 45°24' W 073°35'0 0.0
2016-Jun-30 05:28N 45°24' W 073°35'0 0.0
2016-Jun-30 04:28N 45°24' W 073°35'0 0.0
2016-Jun-30 03:28N 45°24' W 073°35'0 0.0
2016-Jun-30 02:31N 45°24' W 073°35'0 0.0
2016-Jun-30 01:31N 45°24' W 073°35'0 0.0
2016-Jun-30 00:31N 45°24' W 073°35'0 0.0
2016-Jun-29 23:31N 45°24' W 073°35'0 0.0
2016-Jun-29 22:31N 45°24' W 073°35'0 0.0
2016-Jun-29 21:31N 45°24' W 073°35'0 0.0
2016-Jun-29 20:31N 45°24' W 073°35'0 0.0
2016-Jun-29 19:31N 45°24' W 073°35'0 0.0
2016-Jun-29 18:25N 45°24' W 073°35'0 0.0
2016-Jun-29 17:30N 45°24' W 073°35'0 0.0
2016-Jun-29 16:33N 45°24' W 073°35'0 0.0
2016-Jun-29 15:29N 45°24' W 073°35'0 0.0
2016-Jun-29 14:28N 45°24' W 073°35'0 0.0
2016-Jun-29 13:28N 45°24' W 073°35'0 0.0
2016-Jun-29 12:28N 45°24' W 073°35'0 0.0
2016-Jun-29 11:28N 45°24' W 073°35'0 0.0
2016-Jun-29 10:28N 45°24' W 073°35'0 0.0
2016-Jun-29 09:28N 45°24' W 073°35'0 0.0
2016-Jun-29 08:28N 45°24' W 073°35'0 0.0
2016-Jun-29 07:28N 45°24' W 073°35'0 0.0
2016-Jun-29 06:33N 45°24' W 073°35'0 0.2
2016-Jun-29 05:33N 45°24' W 073°35'1 1.2
2016-Jun-29 04:33N 45°24' W 073°33'5 4.3
2016-Jun-29 03:30N 45°29' W 073°31'5 2.8
2016-Jun-29 01:33N 45°34' W 073°31'9 8.9
2016-Jun-29 00:34N 45°42' W 073°26'1010.3
2016-Jun-28 23:33N 45°50' W 073°17'1110.6
2016-Jun-28 22:34N 45°60' W 073°11'10 9.9
2016-Jun-28 21:34N 46°06' W 072°59'1111.0
2016-Jun-28 20:33N 46°13' W 072°48'  
2016-Jun-26 14:31N 46°14' W 072°46'1313.6
2016-Jun-26 13:33N 46°05' W 072°60'1312.7
2016-Jun-26 12:34N 45°56' W 073°13'1413.7
2016-Jun-26 11:33N 45°45' W 073°24'1211.7
2016-Jun-26 10:33N 45°34' W 073°30'2 1.7
2016-Jun-26 09:31N 45°33' W 073°32'0 0.0
2016-Jun-26 08:22N 45°33' W 073°32'0 0.0
2016-Jun-26 07:31N 45°33' W 073°32'0 0.0
2016-Jun-26 06:28N 45°33' W 073°32'0 0.0
2016-Jun-26 05:28N 45°33' W 073°32'0 0.0
2016-Jun-26 04:28N 45°33' W 073°32'  

Dump ship's entire track history